createdAt,value
2022-10-01T00:03:47.520Z,100016.13
2022-10-01T00:09:11.967Z,99996.94
2022-10-01T00:14:35.684Z,99985.56
2022-10-01T00:19:58.670Z,100003.25
2022-10-01T00:25:25.358Z,99986.22
2022-10-01T00:30:48.771Z,99977.47
2022-10-01T00:36:12.576Z,99958.13
2022-10-01T00:41:37.226Z,99951.28
2022-10-01T00:47:05.565Z,99925.09
2022-10-01T00:52:31.905Z,99928.66
2022-10-01T00:57:56.434Z,99920.16
2022-10-01T01:03:19.415Z,99900.72
2022-10-01T01:08:42.800Z,99905.16
2022-10-01T01:14:15.506Z,99909.16
2022-10-01T01:19:50.745Z,99899.75
2022-10-01T01:25:17.878Z,99903.84
2022-10-01T01:30:42.662Z,99887.53
2022-10-01T01:36:08.938Z,99873.47
2022-10-01T01:41:35.471Z,99868.75
2022-10-01T01:47:01.046Z,99872.00
2022-10-01T01:52:24.058Z,99870.66
2022-10-01T01:57:47.100Z,99850.81
2022-10-01T02:03:11.957Z,99862.72
2022-10-01T02:08:41.130Z,99856.31
2022-10-01T02:14:10.699Z,99854.56
2022-10-01T02:19:38.182Z,99841.19
2022-10-01T02:25:02.876Z,99834.78
2022-10-01T02:30:26.045Z,99824.25
2022-10-01T02:35:52.047Z,99811.38
2022-10-01T02:41:17.195Z,99814.56
2022-10-01T02:46:45.309Z,99811.94
2022-10-01T02:52:15.151Z,99812.59
2022-10-01T02:57:38.624Z,99807.09
2022-10-01T03:03:01.684Z,99823.16
2022-10-01T03:08:26.205Z,99811.53
2022-10-01T03:13:49.251Z,99802.72
2022-10-01T03:19:12.291Z,99804.91
2022-10-01T03:24:37.262Z,99820.91
2022-10-01T03:30:02.503Z,99819.25
2022-10-01T03:35:25.677Z,99827.84
2022-10-01T03:40:50.356Z,99823.00
2022-10-01T03:46:13.453Z,99843.88
2022-10-01T03:51:37.577Z,99845.75
2022-10-01T03:57:02.475Z,99852.28
2022-10-01T04:02:27.706Z,99860.97
2022-10-01T04:07:53.328Z,99857.41
2022-10-01T04:13:20.878Z,99867.47
2022-10-01T04:18:44.006Z,99880.50
2022-10-01T04:24:07.623Z,99887.91
2022-10-01T04:29:33.239Z,99894.59
2022-10-01T04:34:57.706Z,99896.16
2022-10-01T04:40:20.648Z,99899.84
2022-10-01T04:45:45.014Z,99912.94
2022-10-01T04:51:08.179Z,99918.66
2022-10-01T04:56:31.187Z,99922.97
2022-10-01T05:01:55.694Z,99933.19
2022-10-01T05:07:19.394Z,99933.03
2022-10-01T05:12:42.443Z,99932.09
2022-10-01T05:18:08.171Z,99943.50
2022-10-01T05:23:31.277Z,99962.25
2022-10-01T05:28:54.477Z,99965.13
2022-10-01T05:34:20.153Z,99979.56
2022-10-01T05:39:43.214Z,99979.66
2022-10-01T05:45:08.460Z,99976.56
2022-10-01T05:50:34.500Z,99994.00
2022-10-01T05:56:02.954Z,100001.16
2022-10-01T06:01:25.979Z,100008.34
2022-10-01T06:06:50.580Z,100024.16
2022-10-01T06:12:17.637Z,100029.66
2022-10-01T06:17:45.121Z,100020.06
2022-10-01T06:23:14.511Z,100027.66
2022-10-01T06:28:37.531Z,100026.81
2022-10-01T06:34:01.682Z,100026.75
2022-10-01T06:39:26.014Z,100036.94
2022-10-01T06:44:49.058Z,100038.91
2022-10-01T06:50:12.332Z,100049.06
2022-10-01T06:55:37.764Z,100051.97
2022-10-01T07:01:02.105Z,100051.91
2022-10-01T07:06:25.989Z,100061.19
2022-10-01T07:11:50.412Z,100066.91
2022-10-01T07:17:13.390Z,100069.44
2022-10-01T07:22:36.714Z,100075.09
2022-10-01T07:28:04.307Z,100090.50
2022-10-01T07:33:27.477Z,100089.09
2022-10-01T07:38:51.443Z,100087.97
2022-10-01T07:44:16.140Z,100091.34
2022-10-01T07:49:39.951Z,100098.09
2022-10-01T07:55:03.166Z,100114.09
2022-10-01T08:00:29.581Z,100112.47
2022-10-01T08:05:56.761Z,100116.66
2022-10-01T08:11:20.009Z,100116.81
2022-10-01T08:16:44.600Z,100122.69
2022-10-01T08:22:08.224Z,100128.59
2022-10-01T08:27:31.445Z,100138.59
2022-10-01T08:32:56.930Z,100146.69
2022-10-01T08:38:20.519Z,100144.31
2022-10-01T08:43:44.009Z,100145.84
2022-10-01T08:49:16.480Z,100148.66
2022-10-01T08:54:41.867Z,100158.44
2022-10-01T09:00:11.713Z,100166.06
2022-10-01T09:05:49.059Z,100167.84
2022-10-01T09:11:33.160Z,100179.28
2022-10-01T09:17:05.309Z,100201.13
2022-10-01T09:22:39.111Z,100190.50
2022-10-01T09:28:07.806Z,100200.56
2022-10-01T09:33:33.058Z,100219.88
2022-10-01T09:39:05.451Z,100236.41
2022-10-01T09:44:32.573Z,100233.97
2022-10-01T09:49:55.785Z,100233.34
2022-10-01T09:55:28.394Z,100254.19
2022-10-01T10:00:52.540Z,100256.78
2022-10-01T10:06:17.475Z,100254.91
2022-10-01T10:11:43.952Z,100243.94
2022-10-01T10:17:09.667Z,100263.28
2022-10-01T10:22:32.791Z,100291.47
2022-10-01T10:27:59.707Z,100309.22
2022-10-01T10:33:24.080Z,100319.84
2022-10-01T10:38:49.536Z,100302.19
2022-10-01T10:44:16.800Z,100322.91
2022-10-01T10:49:45.070Z,100338.13
2022-10-01T10:55:23.023Z,100344.56
2022-10-01T11:00:50.019Z,100354.94
2022-10-01T11:06:15.219Z,100364.66
2022-10-01T11:11:47.052Z,100379.38
2022-10-01T11:17:27.407Z,100397.56
2022-10-01T11:23:00.806Z,100415.97
2022-10-01T11:28:37.444Z,100420.38
2022-10-01T11:34:17.450Z,100430.66
2022-10-01T11:39:43.636Z,100435.16
2022-10-01T11:45:16.228Z,100441.22
2022-10-01T11:50:43.792Z,100452.50
2022-10-01T11:56:28.764Z,100461.28
2022-10-01T12:01:58.166Z,100472.66
2022-10-01T12:07:27.923Z,100486.41
2022-10-01T12:12:56.300Z,100490.53
2022-10-01T12:18:24.038Z,100504.34
2022-10-01T12:23:52.133Z,100501.31
2022-10-01T12:29:19.761Z,100501.13
2022-10-01T12:34:54.502Z,100489.03
2022-10-01T12:40:24.441Z,100509.28
2022-10-01T12:45:53.304Z,100513.31
2022-10-01T12:51:33.546Z,100519.56
2022-10-01T12:57:04.566Z,100545.31
2022-10-01T13:02:47.562Z,100537.03
2022-10-01T13:08:26.302Z,100543.19
2022-10-01T13:13:52.359Z,100544.88
2022-10-01T13:19:19.203Z,100560.13
2022-10-01T13:24:44.692Z,100571.91
2022-10-01T13:30:17.811Z,100579.41
2022-10-01T13:35:41.204Z,100592.13
2022-10-01T13:41:05.812Z,100597.91
2022-10-01T13:46:31.668Z,100592.28
2022-10-01T13:51:55.412Z,100613.06
2022-10-01T13:57:29.723Z,100630.41
2022-10-01T14:03:04.005Z,100623.56
2022-10-01T14:08:30.491Z,100633.66
2022-10-01T14:14:22.762Z,100645.06
2022-10-01T14:19:51.765Z,100662.53
2022-10-01T14:25:27.687Z,100669.41
2022-10-01T14:30:57.741Z,100675.31
2022-10-01T14:36:28.441Z,100682.69
2022-10-01T14:41:53.000Z,100687.56
2022-10-01T14:47:20.620Z,100688.31
2022-10-01T14:52:48.760Z,100690.16
2022-10-01T14:58:18.655Z,100706.47
2022-10-01T15:03:43.605Z,100707.13
2022-10-01T15:09:14.380Z,100705.09
2022-10-01T15:14:41.572Z,100728.94
2022-10-01T15:20:05.208Z,100724.09
2022-10-01T15:25:31.133Z,100718.34
2022-10-01T15:30:57.573Z,100723.13
2022-10-01T15:36:22.358Z,100730.78
2022-10-01T15:41:52.491Z,100729.06
2022-10-01T15:47:35.123Z,100742.19
2022-10-01T15:53:05.821Z,100752.34
2022-10-01T15:58:32.325Z,100750.97
2022-10-01T16:04:04.183Z,100766.13
2022-10-01T16:09:32.124Z,100776.97
2022-10-01T16:15:00.058Z,100776.13
2022-10-01T16:20:35.343Z,100781.31
2022-10-01T16:25:58.447Z,100782.28
2022-10-01T16:31:22.993Z,100798.09
2022-10-01T16:36:46.417Z,100805.22
2022-10-01T16:42:23.497Z,100820.63
2022-10-01T16:47:48.527Z,100835.63
2022-10-01T16:53:12.939Z,100845.44
2022-10-01T16:58:38.159Z,100847.06
2022-10-01T17:04:02.942Z,100863.66
2022-10-01T17:09:26.048Z,100866.38
2022-10-01T17:14:49.063Z,100877.19
2022-10-01T17:20:13.855Z,100856.91
2022-10-01T17:25:39.042Z,100890.59
2022-10-01T17:31:06.504Z,100921.16
2022-10-01T17:36:31.481Z,100915.81
2022-10-01T17:41:54.508Z,100921.34
2022-10-01T17:47:17.632Z,100936.09
2022-10-01T17:52:42.413Z,100930.34
2022-10-01T17:58:06.823Z,100928.66
2022-10-01T18:03:29.909Z,100937.00
2022-10-01T18:08:56.051Z,100949.09
2022-10-01T18:14:19.610Z,100956.84
2022-10-01T18:19:57.855Z,100957.25
2022-10-01T18:25:22.240Z,100967.72
2022-10-01T18:30:45.263Z,100971.19
2022-10-01T18:36:15.937Z,100979.94
2022-10-01T18:41:41.937Z,100994.03
2022-10-01T18:47:14.939Z,100989.75
2022-10-01T18:52:46.713Z,100994.94
2022-10-01T18:58:27.440Z,101009.06
2022-10-01T19:04:04.008Z,101016.06
2022-10-01T19:09:33.684Z,101022.94
2022-10-01T19:15:05.165Z,101032.81
2022-10-01T19:20:41.627Z,101033.53
2022-10-01T19:26:12.419Z,101041.44
2022-10-01T19:31:41.617Z,101039.78
2022-10-01T19:37:07.367Z,101037.84
2022-10-01T19:42:32.782Z,101037.84
2022-10-01T19:48:04.644Z,101040.56
2022-10-01T19:53:31.431Z,101041.25
2022-10-01T19:58:54.517Z,101048.41
2022-10-01T20:04:25.507Z,101061.69
2022-10-01T20:09:51.000Z,101068.88
2022-10-01T20:15:20.928Z,101073.28
2022-10-01T20:21:04.264Z,101076.59
2022-10-01T20:26:32.533Z,101079.00
2022-10-01T20:31:58.809Z,101082.38
2022-10-01T20:37:37.574Z,101094.50
2022-10-01T20:43:05.864Z,101105.03
2022-10-01T20:48:33.639Z,101104.31
2022-10-01T20:54:00.432Z,101100.81
2022-10-01T20:59:28.533Z,101098.13
2022-10-01T21:04:54.036Z,101099.22
2022-10-01T21:10:26.242Z,101105.16
2022-10-01T21:15:56.160Z,101104.00
2022-10-01T21:21:26.083Z,101100.41
2022-10-01T21:26:57.412Z,101100.28
2022-10-01T21:32:30.185Z,101094.03
2022-10-01T21:37:58.755Z,101093.53
2022-10-01T21:43:37.002Z,101103.88
2022-10-01T21:49:05.078Z,101108.63
2022-10-01T21:54:48.537Z,101117.72
2022-10-01T22:00:22.029Z,101131.34
2022-10-01T22:05:50.314Z,101146.25
2022-10-01T22:11:15.913Z,101152.66
2022-10-01T22:16:42.329Z,101167.97
2022-10-01T22:22:09.656Z,101165.75
2022-10-01T22:27:35.407Z,101151.84
2022-10-01T22:33:11.081Z,101146.56
2022-10-01T22:38:37.498Z,101175.03
2022-10-01T22:44:00.850Z,101176.50
2022-10-01T22:49:36.850Z,101169.16
2022-10-01T22:55:08.909Z,101182.56
2022-10-01T23:00:33.145Z,101172.75
2022-10-01T23:06:04.911Z,101182.00
2022-10-01T23:11:29.967Z,101183.78
2022-10-01T23:16:58.852Z,101182.13
2022-10-01T23:22:36.597Z,101193.38
2022-10-01T23:28:08.642Z,101189.13
2022-10-01T23:33:50.602Z,101196.44
2022-10-01T23:39:37.254Z,101178.47
2022-10-01T23:45:17.419Z,101209.59
2022-10-01T23:50:42.732Z,101219.13
2022-10-01T23:56:27.679Z,101220.03
